Aviation Digital Data Service (ADDS)

Output produced by METARs form (0325 UTC 21 September 2017)
found at http://www.aviationweather.gov/adds/metars/
 
WBSB 210300Z 25003KT 9999 FEW016 SCT140 BKN280 29/23 Q1010 NOSIG
TAF WBSB 202250Z 2100/2206 20003KT 9999 SCT014 FEW015CB 
     BECMG 2102/2104 25010KT SCT015 FEW016CB BKN140 
     TEMPO 2103/2105 22015G25KT 4000 SHRA